Time;durP1;ratioP1;P1;durP2;ratioP2;P2;SDS_P1;SDS_P2;PMS_P1;PMS_P2;Temp;Humidity;BMP_temperature;BMP_pressure;BME280_temperature;BME280_humidity;BME280_pressure;Samples;Min_cycle;Max_cycle;Signal;HPM_P1;HPM_P2
2023/07/30 00:00:14;;;;;;;11.60;2.90;;;;;;;;;;4896226;29;20459;-76
2023/07/30 00:03:54;;;;;;;12.02;3.03;;;;;;;;;;4894921;29;20044;-77
2023/07/30 00:07:35;;;;;;;9.45;2.60;;;;;;;;;;4890332;29;20059;-80
2023/07/30 00:11:18;;;;;;;9.27;3.00;;;;;;;;;;4892718;29;20079;-74
2023/07/30 00:14:58;;;;;;;8.57;2.60;;;;;;;;;;4885682;29;20045;-73
2023/07/30 00:18:38;;;;;;;8.88;2.90;;;;;;;;;;4893354;29;20051;-74
2023/07/30 00:22:20;;;;;;;9.63;2.78;;;;;;;;;;4893585;29;20052;-76
2023/07/30 00:26:00;;;;;;;9.93;2.75;;;;;;;;;;4893188;29;20586;-70
2023/07/30 00:29:42;;;;;;;14.82;3.65;;;;;;;;;;4887399;29;20075;-73
2023/07/30 00:33:24;;;;;;;14.70;3.20;;;;;;;;;;4891934;29;20076;-72
2023/07/30 00:37:04;;;;;;;16.45;4.00;;;;;;;;;;4878246;29;20049;-71
2023/07/30 00:40:45;;;;;;;12.48;3.13;;;;;;;;;;4886024;29;20048;-72
2023/07/30 00:44:26;;;;;;;8.55;2.95;;;;;;;;;;4890215;29;20231;-76
2023/07/30 00:48:06;;;;;;;11.75;3.38;;;;;;;;;;4888036;29;20040;-76
2023/07/30 00:51:46;;;;;;;9.55;3.20;;;;;;;;;;4893612;29;20049;-79
2023/07/30 00:55:30;;;;;;;12.65;3.13;;;;;;;;;;4885178;29;20048;-73
2023/07/30 00:59:10;;;;;;;12.35;3.58;;;;;;;;;;4890908;29;20381;-70
2023/07/30 01:02:50;;;;;;;11.40;3.83;;;;;;;;;;4888155;29;20052;-72
2023/07/30 01:06:33;;;;;;;17.88;3.67;;;;;;;;;;4879690;29;20044;-74
2023/07/30 01:10:14;;;;;;;9.65;3.60;;;;;;;;;;4889775;29;20055;-72
2023/07/30 01:13:57;;;;;;;12.05;3.60;;;;;;;;;;4890715;29;20404;-74
2023/07/30 01:17:40;;;;;;;10.90;3.55;;;;;;;;;;4892235;29;20126;-71
2023/07/30 01:21:20;;;;;;;13.02;3.95;;;;;;;;;;4885626;29;20493;-75
2023/07/30 01:25:02;;;;;;;10.32;3.85;;;;;;;;;;4886211;29;20048;-76
2023/07/30 01:28:42;;;;;;;12.48;3.70;;;;;;;;;;4886870;29;20077;-74
2023/07/30 01:32:24;;;;;;;10.13;3.50;;;;;;;;;;4885520;29;20057;-80
2023/07/30 01:36:05;;;;;;;9.75;3.42;;;;;;;;;;4890478;29;20108;-70
2023/07/30 01:39:46;;;;;;;11.95;3.67;;;;;;;;;;4885588;29;20119;-71
2023/07/30 01:43:26;;;;;;;13.55;4.07;;;;;;;;;;4885603;29;20056;-73
2023/07/30 01:47:07;;;;;;;9.23;3.10;;;;;;;;;;4886769;29;20048;-75
2023/07/30 01:50:48;;;;;;;10.73;3.95;;;;;;;;;;4891376;29;20087;-77
2023/07/30 01:54:27;;;;;;;10.55;4.10;;;;;;;;;;4889134;29;20476;-73
2023/07/30 01:58:08;;;;;;;8.95;3.80;;;;;;;;;;4887231;29;20063;-72
2023/07/30 02:01:48;;;;;;;11.73;3.65;;;;;;;;;;4897040;29;20417;-74
2023/07/30 02:05:29;;;;;;;13.27;3.50;;;;;;;;;;4893188;29;20131;-72
2023/07/30 02:09:09;;;;;;;13.40;3.65;;;;;;;;;;4892990;29;20040;-73
2023/07/30 02:12:50;;;;;;;12.63;3.80;;;;;;;;;;4883750;29;20057;-72
2023/07/30 02:16:30;;;;;;;14.75;3.80;;;;;;;;;;4885622;29;20048;-76
2023/07/30 02:20:11;;;;;;;12.90;3.50;;;;;;;;;;4887577;29;20112;-72
2023/07/30 02:23:51;;;;;;;15.20;3.92;;;;;;;;;;4888382;29;20180;-75
2023/07/30 02:27:32;;;;;;;11.70;3.33;;;;;;;;;;4894544;29;20481;-75
2023/07/30 02:31:13;;;;;;;9.07;3.72;;;;;;;;;;4891973;29;20080;-69
2023/07/30 02:34:53;;;;;;;12.88;3.90;;;;;;;;;;4893593;29;20059;-70
2023/07/30 02:38:35;;;;;;;16.65;3.63;;;;;;;;;;4890253;29;20060;-71
2023/07/30 02:42:15;;;;;;;13.52;3.53;;;;;;;;;;4880805;29;20433;-77
2023/07/30 02:45:55;;;;;;;15.15;3.38;;;;;;;;;;4888345;29;20052;-73
2023/07/30 02:49:35;;;;;;;13.75;3.60;;;;;;;;;;4888313;29;20405;-78
2023/07/30 02:53:16;;;;;;;13.00;3.83;;;;;;;;;;4880238;29;20092;-75
2023/07/30 02:56:57;;;;;;;13.70;3.70;;;;;;;;;;4880300;29;20057;-70
2023/07/30 03:00:39;;;;;;;13.32;3.55;;;;;;;;;;4888679;29;20091;-72
2023/07/30 03:04:19;;;;;;;19.38;3.50;;;;;;;;;;4898290;29;20072;-77
2023/07/30 03:07:59;;;;;;;8.23;3.33;;;;;;;;;;4896171;29;20135;-76
2023/07/30 03:11:41;;;;;;;11.85;3.85;;;;;;;;;;4893135;29;20129;-71
2023/07/30 03:15:21;;;;;;;11.80;3.75;;;;;;;;;;4894800;29;20048;-73
2023/07/30 03:19:03;;;;;;;14.60;3.35;;;;;;;;;;4886968;29;20184;-71
2023/07/30 03:22:43;;;;;;;8.00;3.47;;;;;;;;;;4891891;29;20057;-70
2023/07/30 03:26:24;;;;;;;12.40;3.65;;;;;;;;;;4893453;29;20461;-72
2023/07/30 03:30:04;;;;;;;11.80;3.60;;;;;;;;;;4891377;29;20048;-77
2023/07/30 03:33:45;;;;;;;14.30;3.30;;;;;;;;;;4891776;29;20378;-78
2023/07/30 03:37:25;;;;;;;13.68;3.50;;;;;;;;;;4894912;29;20052;-73
2023/07/30 03:41:07;;;;;;;11.93;3.42;;;;;;;;;;4893426;29;20051;-78
2023/07/30 03:44:47;;;;;;;12.35;3.65;;;;;;;;;;4894335;29;20079;-72
2023/07/30 03:48:27;;;;;;;14.45;3.80;;;;;;;;;;4891759;29;20055;-72
2023/07/30 03:52:08;;;;;;;13.07;4.03;;;;;;;;;;4891234;29;20047;-71
2023/07/30 03:55:49;;;;;;;11.82;3.50;;;;;;;;;;4889870;29;20048;-73
2023/07/30 03:59:29;;;;;;;8.90;3.38;;;;;;;;;;4891154;29;20536;-77
2023/07/30 04:03:09;;;;;;;12.45;3.38;;;;;;;;;;4884992;29;20086;-73
2023/07/30 04:06:10;;;;;;;11.85;3.00;;;;;;;;;;4893795;29;20573;-76
2023/07/30 04:08:39;;;;;;;8.45;3.08;;;;;;;;;;4895469;29;20499;-72
2023/07/30 04:11:45;;;;;;;10.90;3.22;;;;;;;;;;4890069;29;20049;-73
2023/07/30 04:15:25;;;;;;;10.77;3.22;;;;;;;;;;4890896;29;20161;-76
2023/07/30 04:19:05;;;;;;;12.70;3.75;;;;;;;;;;4891365;29;20542;-74
2023/07/30 04:22:46;;;;;;;13.05;3.20;;;;;;;;;;4884546;29;20409;-71
2023/07/30 04:26:26;;;;;;;13.48;3.33;;;;;;;;;;4889098;29;20045;-70
2023/07/30 04:30:06;;;;;;;9.25;3.33;;;;;;;;;;4891543;29;20056;-71
2023/07/30 04:33:47;;;;;;;15.95;3.00;;;;;;;;;;4892806;29;20044;-73
2023/07/30 04:37:27;;;;;;;10.27;2.65;;;;;;;;;;4887753;29;20040;-73
2023/07/30 04:41:08;;;;;;;9.25;3.25;;;;;;;;;;4891075;29;20413;-75
2023/07/30 04:44:48;;;;;;;10.30;3.47;;;;;;;;;;4890898;29;20207;-75
2023/07/30 04:48:28;;;;;;;10.45;3.05;;;;;;;;;;4891532;29;20044;-72
2023/07/30 04:52:09;;;;;;;14.90;3.40;;;;;;;;;;4879990;29;20248;-71
2023/07/30 04:55:50;;;;;;;13.23;3.35;;;;;;;;;;4885095;29;20049;-69
2023/07/30 04:59:30;;;;;;;12.82;3.67;;;;;;;;;;4893259;29;20037;-73
2023/07/30 05:03:11;;;;;;;12.60;3.67;;;;;;;;;;4892400;29;20145;-73
2023/07/30 05:06:51;;;;;;;12.18;3.40;;;;;;;;;;4894171;29;20044;-70
2023/07/30 05:10:31;;;;;;;15.10;3.80;;;;;;;;;;4892070;29;20064;-76
2023/07/30 05:14:13;;;;;;;9.00;3.40;;;;;;;;;;4891049;29;20127;-73
2023/07/30 05:17:53;;;;;;;12.02;3.80;;;;;;;;;;4894063;29;20097;-71
2023/07/30 05:21:33;;;;;;;11.98;4.07;;;;;;;;;;4890727;29;20041;-69
2023/07/30 05:25:14;;;;;;;11.95;3.78;;;;;;;;;;4886655;29;20069;-72
2023/07/30 05:28:54;;;;;;;12.50;4.45;;;;;;;;;;4891867;29;20112;-73
2023/07/30 05:32:34;;;;;;;14.32;4.43;;;;;;;;;;4893534;29;20473;-68
2023/07/30 05:36:15;;;;;;;10.95;4.47;;;;;;;;;;4893353;29;20084;-73
2023/07/30 05:39:55;;;;;;;13.52;4.40;;;;;;;;;;4893000;29;20520;-73
2023/07/30 05:43:35;;;;;;;14.77;5.03;;;;;;;;;;4891329;29;20053;-71
2023/07/30 05:47:16;;;;;;;16.95;5.25;;;;;;;;;;4896825;29;20096;-70
2023/07/30 05:50:16;;;;;;;10.88;4.63;;;;;;;;;;4884000;29;20045;-70
2023/07/30 05:52:42;;;;;;;10.77;4.70;;;;;;;;;;4897289;29;20037;-70
2023/07/30 05:55:08;;;;;;;13.05;4.60;;;;;;;;;;4894491;29;20107;-71
2023/07/30 05:58:14;;;;;;;11.65;4.40;;;;;;;;;;4896198;29;20750;-75
2023/07/30 06:01:55;;;;;;;11.85;4.30;;;;;;;;;;4888167;29;20052;-77
2023/07/30 06:05:35;;;;;;;13.52;5.35;;;;;;;;;;4891559;29;20056;-73
2023/07/30 06:09:16;;;;;;;16.45;5.20;;;;;;;;;;4894195;29;20143;-76
2023/07/30 06:12:56;;;;;;;11.93;5.43;;;;;;;;;;4884400;29;20061;-73
2023/07/30 06:16:36;;;;;;;15.13;5.57;;;;;;;;;;4882635;29;20056;-71
2023/07/30 06:20:17;;;;;;;12.65;5.38;;;;;;;;;;4889401;29;20045;-73
2023/07/30 06:23:58;;;;;;;14.93;4.80;;;;;;;;;;4894363;29;20569;-74
2023/07/30 06:27:39;;;;;;;21.42;5.50;;;;;;;;;;4893040;29;20055;-76
2023/07/30 06:30:46;;;;;;;13.32;5.18;;;;;;;;;;4888830;29;20446;-77
2023/07/30 06:34:26;;;;;;;10.57;4.90;;;;;;;;;;4890341;29;20064;-73
2023/07/30 06:37:51;;;;;;;14.27;5.30;;;;;;;;;;4887136;29;20052;-73
2023/07/30 06:41:31;;;;;;;9.20;4.80;;;;;;;;;;4891843;29;20088;-70
2023/07/30 06:45:11;;;;;;;16.65;4.50;;;;;;;;;;4882724;29;20041;-70
2023/07/30 06:48:52;;;;;;;8.60;4.32;;;;;;;;;;4885794;29;20408;-73
2023/07/30 06:52:32;;;;;;;14.70;4.18;;;;;;;;;;4886210;29;20134;-73
2023/07/30 06:55:50;;;;;;;13.68;5.07;;;;;;;;;;4890874;29;20037;-72
2023/07/30 06:58:16;;;;;;;15.85;4.70;;;;;;;;;;4891735;29;20049;-72
2023/07/30 07:01:22;;;;;;;13.15;5.10;;;;;;;;;;4892421;29;20497;-72
2023/07/30 07:05:02;;;;;;;16.95;5.78;;;;;;;;;;4890145;29;20436;-72
2023/07/30 07:08:42;;;;;;;12.93;5.25;;;;;;;;;;4888168;29;20676;-71
2023/07/30 07:12:23;;;;;;;13.90;4.70;;;;;;;;;;4894428;29;20051;-68
2023/07/30 07:16:03;;;;;;;15.57;5.22;;;;;;;;;;4881154;29;20128;-70
2023/07/30 07:19:44;;;;;;;13.05;4.68;;;;;;;;;;4886837;29;20063;-69
2023/07/30 07:23:24;;;;;;;12.80;4.38;;;;;;;;;;4891663;29;20055;-69
2023/07/30 07:27:04;;;;;;;13.73;4.53;;;;;;;;;;4888408;29;20055;-69
2023/07/30 07:30:45;;;;;;;10.35;4.00;;;;;;;;;;4880686;29;20060;-69
2023/07/30 07:34:25;;;;;;;18.38;3.92;;;;;;;;;;4885718;29;20064;-71
2023/07/30 07:38:07;;;;;;;13.80;3.90;;;;;;;;;;4891190;29;20096;-70
2023/07/30 07:41:47;;;;;;;13.30;3.70;;;;;;;;;;4890966;29;20087;-71
2023/07/30 07:45:28;;;;;;;12.05;3.58;;;;;;;;;;4887337;29;20411;-74
2023/07/30 07:49:08;;;;;;;7.82;3.28;;;;;;;;;;4884426;29;20053;-69
2023/07/30 07:52:49;;;;;;;10.10;3.45;;;;;;;;;;4883509;29;20434;-68
2023/07/30 07:56:31;;;;;;;12.60;3.58;;;;;;;;;;4884418;29;20076;-68
2023/07/30 08:00:11;;;;;;;10.05;3.72;;;;;;;;;;4886559;29;20100;-69
2023/07/30 08:03:52;;;;;;;10.73;3.40;;;;;;;;;;4888871;29;20044;-70
2023/07/30 08:07:32;;;;;;;14.10;3.47;;;;;;;;;;4891742;29;20049;-69
2023/07/30 08:11:12;;;;;;;12.30;3.70;;;;;;;;;;4887163;29;20055;-72
2023/07/30 08:14:53;;;;;;;10.02;3.70;;;;;;;;;;4883081;29;20049;-67
2023/07/30 08:18:33;;;;;;;10.00;2.90;;;;;;;;;;4899483;29;20048;-67
2023/07/30 08:22:13;;;;;;;9.65;3.28;;;;;;;;;;4889204;29;20056;-68
2023/07/30 08:25:54;;;;;;;7.57;3.05;;;;;;;;;;4889715;29;20052;-71
2023/07/30 08:29:34;;;;;;;10.55;3.20;;;;;;;;;;4883373;29;20052;-69
2023/07/30 08:33:16;;;;;;;10.38;3.08;;;;;;;;;;4884481;29;20668;-73
2023/07/30 08:36:57;;;;;;;11.77;2.88;;;;;;;;;;4887325;29;20060;-73
2023/07/30 08:40:37;;;;;;;7.47;3.30;;;;;;;;;;4881944;29;20406;-71
2023/07/30 08:44:18;;;;;;;11.23;2.80;;;;;;;;;;4879237;29;20131;-72
2023/07/30 08:47:59;;;;;;;10.10;3.28;;;;;;;;;;4889861;29;20514;-71
2023/07/30 08:51:41;;;;;;;11.48;2.90;;;;;;;;;;4884398;29;20092;-71
2023/07/30 08:55:05;;;;;;;11.32;3.42;;;;;;;;;;4885966;29;20055;-73
2023/07/30 08:58:21;;;;;;;10.02;2.90;;;;;;;;;;4884089;29;20135;-70
2023/07/30 09:02:01;;;;;;;7.50;2.83;;;;;;;;;;4887392;23;20053;-72
2023/07/30 09:05:42;;;;;;;7.30;2.97;;;;;;;;;;4885677;29;20476;-72
2023/07/30 09:08:42;;;;;;;7.65;3.10;;;;;;;;;;4885516;29;20127;-66
2023/07/30 09:11:48;;;;;;;11.93;3.55;;;;;;;;;;4889715;29;20128;-68
2023/07/30 09:15:31;;;;;;;14.38;3.50;;;;;;;;;;4878131;29;20535;-68
2023/07/30 09:19:10;;;;;;;12.35;3.42;;;;;;;;;;4888849;29;20079;-70
2023/07/30 09:22:52;;;;;;;13.02;3.25;;;;;;;;;;4880938;29;20572;-73
2023/07/30 09:26:32;;;;;;;11.48;3.47;;;;;;;;;;4882891;29;20097;-68
2023/07/30 09:30:12;;;;;;;10.32;3.50;;;;;;;;;;4883150;29;20055;-68
2023/07/30 09:33:54;;;;;;;9.07;3.28;;;;;;;;;;4886751;29;20131;-67
2023/07/30 09:37:34;;;;;;;8.50;3.30;;;;;;;;;;4888429;29;20049;-67
2023/07/30 09:41:15;;;;;;;17.58;3.28;;;;;;;;;;4888782;29;20053;-69
2023/07/30 09:44:55;;;;;;;12.80;3.38;;;;;;;;;;4878696;29;20061;-71
2023/07/30 09:48:35;;;;;;;9.02;3.13;;;;;;;;;;4886947;29;20048;-70
2023/07/30 09:52:16;;;;;;;9.20;3.40;;;;;;;;;;4887564;29;20512;-66
2023/07/30 09:55:56;;;;;;;12.18;3.00;;;;;;;;;;4881210;29;20052;-67
2023/07/30 09:58:58;;;;;;;8.00;2.88;;;;;;;;;;4876692;29;20053;-68
2023/07/30 10:01:28;;;;;;;11.90;2.95;;;;;;;;;;4875324;29;20138;-64
2023/07/30 10:03:59;;;;;;;7.60;2.80;;;;;;;;;;4888292;29;20566;-65
2023/07/30 10:07:06;;;;;;;7.68;3.10;;;;;;;;;;4887704;29;20049;-71
2023/07/30 10:10:45;;;;;;;6.85;2.75;;;;;;;;;;4882991;29;20489;-66
2023/07/30 10:14:25;;;;;;;11.32;2.67;;;;;;;;;;4884759;29;20045;-66
2023/07/30 10:18:06;;;;;;;11.43;2.47;;;;;;;;;;4883503;29;20048;-68
2023/07/30 10:21:49;;;;;;;10.63;2.60;;;;;;;;;;4890952;29;20059;-69
2023/07/30 10:24:56;;;;;;;9.80;2.40;;;;;;;;;;4890206;29;20505;-65
2023/07/30 10:28:31;;;;;;;17.05;2.95;;;;;;;;;;4891983;29;20400;-65
2023/07/30 10:31:57;;;;;;;;;;;;;;;;;;4883718;29;20448;-64
2023/07/30 10:35:37;;;;;;;11.13;2.80;;;;;;;;;;4891741;29;19930;-66
2023/07/30 10:39:17;;;;;;;11.80;2.88;;;;;;;;;;4891955;29;20048;-66
2023/07/30 10:42:57;;;;;;;13.73;2.80;;;;;;;;;;4892143;29;20075;-66
2023/07/30 10:46:37;;;;;;;8.63;2.80;;;;;;;;;;4887826;29;20092;-67
2023/07/30 10:50:18;;;;;;;9.50;2.50;;;;;;;;;;4885178;29;20131;-64
2023/07/30 10:53:58;;;;;;;5.95;2.10;;;;;;;;;;4887685;29;20453;-65
2023/07/30 10:57:40;;;;;;;12.98;2.78;;;;;;;;;;4890250;29;20057;-66
2023/07/30 11:01:19;;;;;;;6.75;2.53;;;;;;;;;;4892530;29;20079;-64
2023/07/30 11:05:00;;;;;;;8.60;2.45;;;;;;;;;;4891570;29;20059;-69
2023/07/30 11:08:33;;;;;;;14.38;3.13;;;;;;;;;;4892097;29;20060;-66
2023/07/30 11:12:14;;;;;;;15.18;2.92;;;;;;;;;;4891814;29;20052;-66
2023/07/30 11:15:54;;;;;;;8.93;2.53;;;;;;;;;;4892286;29;20078;-67
2023/07/30 11:19:35;;;;;;;9.40;2.70;;;;;;;;;;4886068;29;20057;-67
2023/07/30 11:23:15;;;;;;;11.40;2.80;;;;;;;;;;4884690;29;20339;-66
2023/07/30 11:26:55;;;;;;;9.40;2.63;;;;;;;;;;4889126;29;20057;-65
2023/07/30 11:30:36;;;;;;;12.70;2.67;;;;;;;;;;4889525;29;20464;-68
2023/07/30 11:34:18;;;;;;;14.35;2.72;;;;;;;;;;4892464;29;20056;-64
2023/07/30 11:37:57;;;;;;;10.30;2.83;;;;;;;;;;4889740;29;20449;-66
2023/07/30 11:41:37;;;;;;;13.20;3.40;;;;;;;;;;4893600;29;20047;-66
2023/07/30 11:45:19;;;;;;;11.55;2.92;;;;;;;;;;4886168;29;20103;-66
2023/07/30 11:48:58;;;;;;;16.25;3.97;;;;;;;;;;4890855;29;20049;-66
2023/07/30 11:52:44;;;;;;;16.33;3.35;;;;;;;;;;4885236;29;20549;-67
2023/07/30 11:56:25;;;;;;;9.48;3.13;;;;;;;;;;4892183;29;20485;-65
2023/07/30 12:00:06;;;;;;;10.38;2.97;;;;;;;;;;4879490;29;20486;-66
2023/07/30 12:03:45;;;;;;;10.82;2.63;;;;;;;;;;4880867;29;20061;-65
2023/07/30 12:07:26;;;;;;;10.00;2.88;;;;;;;;;;4889658;29;20413;-66
2023/07/30 12:11:06;;;;;;;8.40;2.78;;;;;;;;;;4886719;29;20052;-67
2023/07/30 12:14:46;;;;;;;10.40;2.80;;;;;;;;;;4888347;29;20080;-67
2023/07/30 12:18:28;;;;;;;12.73;2.88;;;;;;;;;;4892673;29;20128;-65
2023/07/30 12:22:07;;;;;;;11.77;3.35;;;;;;;;;;4893369;29;20867;-66
2023/07/30 12:25:47;;;;;;;9.05;2.63;;;;;;;;;;4890774;29;20079;-66
2023/07/30 12:29:28;;;;;;;11.85;2.60;;;;;;;;;;4884716;29;20063;-67
2023/07/30 12:33:08;;;;;;;11.55;3.17;;;;;;;;;;4892222;29;20405;-66
2023/07/30 12:36:48;;;;;;;11.63;2.92;;;;;;;;;;4893674;29;20060;-65
2023/07/30 12:40:33;;;;;;;9.80;2.40;;;;;;;;;;4887499;29;20060;-67
2023/07/30 12:44:09;;;;;;;13.25;2.83;;;;;;;;;;4886402;29;20465;-65
2023/07/30 12:47:50;;;;;;;16.13;3.08;;;;;;;;;;4884959;29;20051;-67
2023/07/30 12:51:30;;;;;;;11.75;2.72;;;;;;;;;;4888728;29;20060;-65
2023/07/30 12:55:12;;;;;;;10.43;2.53;;;;;;;;;;4891158;29;20571;-67
2023/07/30 12:58:52;;;;;;;13.00;2.92;;;;;;;;;;4887606;29;20064;-67
2023/07/30 13:02:34;;;;;;;9.15;2.38;;;;;;;;;;4891969;29;20060;-66
2023/07/30 13:06:13;;;;;;;9.75;2.55;;;;;;;;;;4889485;29;20045;-66
2023/07/30 13:09:53;;;;;;;16.17;3.15;;;;;;;;;;4888418;29;20051;-66
2023/07/30 13:13:33;;;;;;;10.55;2.50;;;;;;;;;;4889630;29;20096;-67
2023/07/30 13:17:14;;;;;;;12.77;2.80;;;;;;;;;;4891382;29;20140;-66
2023/07/30 13:20:54;;;;;;;12.23;3.03;;;;;;;;;;4886785;29;20524;-67
2023/07/30 13:24:36;;;;;;;12.73;2.70;;;;;;;;;;4888505;29;20052;-66
2023/07/30 13:28:15;;;;;;;13.85;3.00;;;;;;;;;;4890233;29;20053;-66
2023/07/30 13:31:56;;;;;;;12.40;2.58;;;;;;;;;;4886384;29;20108;-70
2023/07/30 13:35:36;;;;;;;15.60;3.25;;;;;;;;;;4877621;29;20545;-66
2023/07/30 13:39:18;;;;;;;12.18;3.05;;;;;;;;;;4887088;29;20059;-65
2023/07/30 13:42:58;;;;;;;7.97;2.75;;;;;;;;;;4893272;29;20053;-66
2023/07/30 13:46:40;;;;;;;13.38;3.20;;;;;;;;;;4893332;29;20507;-66
2023/07/30 13:50:20;;;;;;;14.48;3.33;;;;;;;;;;4885226;29;20173;-66
2023/07/30 13:54:01;;;;;;;18.83;3.38;;;;;;;;;;4890298;29;20056;-66
2023/07/30 13:57:44;;;;;;;14.20;2.80;;;;;;;;;;4886067;29;20116;-66
2023/07/30 14:00:41;;;;;;;11.90;3.15;;;;;;;;;;4888712;29;20056;-66
2023/07/30 14:03:08;;;;;;;9.00;3.10;;;;;;;;;;4898214;29;20049;-67
2023/07/30 14:05:36;;;;;;;14.25;3.08;;;;;;;;;;4898250;29;20103;-65
2023/07/30 14:08:01;;;;;;;8.90;2.70;;;;;;;;;;4892835;29;20056;-65
2023/07/30 14:10:28;;;;;;;16.38;3.25;;;;;;;;;;4894091;29;20053;-65
2023/07/30 14:12:54;;;;;;;12.43;2.60;;;;;;;;;;4892961;29;20071;-64
2023/07/30 14:15:22;;;;;;;16.40;3.05;;;;;;;;;;4897703;29;20056;-65
2023/07/30 14:17:48;;;;;;;13.07;3.08;;;;;;;;;;4895004;29;20497;-64
2023/07/30 14:20:14;;;;;;;16.00;3.30;;;;;;;;;;4895940;29;20088;-65
2023/07/30 14:22:39;;;;;;;16.75;3.17;;;;;;;;;;4880197;29;20044;-65
2023/07/30 14:25:07;;;;;;;13.77;3.15;;;;;;;;;;4894121;29;20056;-65
2023/07/30 14:27:33;;;;;;;10.20;2.65;;;;;;;;;;4892534;29;20119;-66
2023/07/30 14:29:59;;;;;;;13.85;2.90;;;;;;;;;;4884272;29;20052;-63
2023/07/30 14:32:26;;;;;;;10.70;2.70;;;;;;;;;;4891477;29;20051;-67
2023/07/30 14:34:52;;;;;;;14.85;2.90;;;;;;;;;;4884461;29;20056;-65
2023/07/30 14:37:17;;;;;;;9.48;2.80;;;;;;;;;;4900568;29;20153;-66
2023/07/30 14:39:46;;;;;;;13.90;2.72;;;;;;;;;;4893825;29;20057;-64
2023/07/30 14:42:13;;;;;;;15.85;3.08;;;;;;;;;;4888479;29;20056;-64
2023/07/30 14:44:39;;;;;;;12.13;2.83;;;;;;;;;;4895441;29;20056;-64
2023/07/30 14:47:08;;;;;;;13.52;2.88;;;;;;;;;;4876385;29;20405;-64
2023/07/30 14:49:34;;;;;;;9.27;2.90;;;;;;;;;;4881448;29;20508;-64
2023/07/30 14:52:00;;;;;;;14.60;2.65;;;;;;;;;;4888855;29;20048;-65
2023/07/30 14:54:26;;;;;;;26.40;11.60;;;;;;;;;;4872067;29;20053;-67
2023/07/30 14:56:55;;;;;;;34.00;16.70;;;;;;;;;;4885481;29;20064;-67
2023/07/30 14:59:21;;;;;;;53.38;11.02;;;;;;;;;;4884196;29;20056;-67
2023/07/30 15:01:47;;;;;;;23.25;6.45;;;;;;;;;;4889305;29;20096;-69
2023/07/30 15:04:13;;;;;;;18.65;5.75;;;;;;;;;;4887831;29;20420;-68
2023/07/30 15:06:39;;;;;;;16.58;3.72;;;;;;;;;;4871298;29;20048;-69
2023/07/30 15:09:06;;;;;;;19.40;4.50;;;;;;;;;;4891888;29;20507;-70
2023/07/30 15:11:32;;;;;;;14.00;3.45;;;;;;;;;;4872481;29;20516;-67
2023/07/30 15:13:58;;;;;;;16.58;4.63;;;;;;;;;;4890418;29;20048;-69
2023/07/30 15:16:25;;;;;;;27.88;5.82;;;;;;;;;;4895192;29;20108;-67
2023/07/30 15:18:51;;;;;;;8.77;3.25;;;;;;;;;;4886492;29;20048;-65
2023/07/30 15:21:17;;;;;;;15.25;3.20;;;;;;;;;;4885959;29;20398;-66
2023/07/30 15:23:46;;;;;;;15.25;3.47;;;;;;;;;;4892361;29;20075;-66
2023/07/30 15:26:30;;;;;;;11.70;2.70;;;;;;;;;;4890146;29;20060;-66
2023/07/30 15:28:57;;;;;;;10.43;2.97;;;;;;;;;;4876448;29;20056;-66
2023/07/30 15:31:23;;;;;;;13.73;2.88;;;;;;;;;;4889017;29;20048;-69
2023/07/30 15:33:52;;;;;;;12.10;2.83;;;;;;;;;;4887847;29;20085;-69
2023/07/30 15:36:21;;;;;;;9.98;2.70;;;;;;;;;;4885592;29;20476;-70
2023/07/30 15:38:51;;;;;;;9.20;2.80;;;;;;;;;;4872896;29;20056;-70
2023/07/30 15:41:18;;;;;;;11.18;2.55;;;;;;;;;;4882245;29;20719;-69
2023/07/30 15:43:47;;;;;;;9.77;2.75;;;;;;;;;;4883413;29;20076;-69
2023/07/30 15:46:20;;;;;;;6.75;2.60;;;;;;;;;;4882413;29;20108;-71
2023/07/30 15:48:47;;;;;;;10.00;2.47;;;;;;;;;;4890723;29;20056;-71
2023/07/30 15:51:12;;;;;;;8.73;2.90;;;;;;;;;;4868419;29;20056;-68
2023/07/30 15:53:43;;;;;;;10.05;2.75;;;;;;;;;;4884561;29;20081;-69
2023/07/30 15:56:10;;;;;;;15.88;2.95;;;;;;;;;;4868464;29;20502;-66
2023/07/30 15:58:36;;;;;;;16.17;2.97;;;;;;;;;;4882022;29;20526;-69
2023/07/30 16:01:09;;;;;;;9.30;2.95;;;;;;;;;;4891536;29;20056;-69
2023/07/30 16:03:55;;;;;;;;;;;;;;;;;;4854058;29;20057;-67
2023/07/30 16:07:37;;;;;;;13.23;3.05;;;;;;;;;;4872679;29;19997;-66
2023/07/30 16:11:26;;;;;;;10.95;2.78;;;;;;;;;;4871456;29;20128;-65
2023/07/30 16:15:22;;;;;;;12.60;2.90;;;;;;;;;;4870868;29;20057;-67
2023/07/30 16:19:03;;;;;;;12.07;2.78;;;;;;;;;;4873761;29;20144;-69
2023/07/30 16:22:43;;;;;;;13.48;2.80;;;;;;;;;;4872176;29;20136;-69
2023/07/30 16:26:23;;;;;;;8.40;3.03;;;;;;;;;;4873042;29;20040;-68
2023/07/30 16:30:03;;;;;;;10.25;2.80;;;;;;;;;;4869171;29;20439;-65
2023/07/30 16:33:04;;;;;;;12.90;3.10;;;;;;;;;;4869254;29;20083;-66
2023/07/30 16:35:30;;;;;;;10.80;2.70;;;;;;;;;;4847645;29;20473;-66
2023/07/30 16:37:56;;;;;;;11.98;2.80;;;;;;;;;;4869400;29;20060;-68
2023/07/30 16:40:22;;;;;;;8.77;2.83;;;;;;;;;;4865120;29;20465;-69
2023/07/30 16:42:48;;;;;;;13.80;2.80;;;;;;;;;;4869980;29;20639;-68
2023/07/30 16:45:17;;;;;;;10.88;2.55;;;;;;;;;;4869603;29;20045;-68
2023/07/30 16:47:45;;;;;;;14.15;3.00;;;;;;;;;;4873356;29;20041;-69
2023/07/30 16:50:13;;;;;;;12.20;2.90;;;;;;;;;;4855265;29;20057;-67
2023/07/30 16:52:40;;;;;;;12.98;3.17;;;;;;;;;;4872866;29;20061;-67
2023/07/30 16:55:07;;;;;;;12.00;3.33;;;;;;;;;;4873794;29;20060;-66
2023/07/30 16:57:33;;;;;;;10.65;2.85;;;;;;;;;;4873194;29;20365;-67
2023/07/30 16:59:59;;;;;;;14.23;2.70;;;;;;;;;;4872686;29;20057;-71
2023/07/30 17:02:26;;;;;;;13.55;3.65;;;;;;;;;;4862717;29;20056;-65
2023/07/30 17:04:53;;;;;;;8.95;2.67;;;;;;;;;;4874659;29;20057;-69
2023/07/30 17:07:19;;;;;;;8.18;2.67;;;;;;;;;;4873096;29;20047;-67
2023/07/30 17:09:46;;;;;;;12.82;2.80;;;;;;;;;;4872852;29;20057;-66
2023/07/30 17:12:12;;;;;;;8.88;2.88;;;;;;;;;;4875153;29;20165;-66
2023/07/30 17:14:38;;;;;;;11.48;2.83;;;;;;;;;;4873346;29;20562;-65
2023/07/30 17:17:07;;;;;;;13.70;2.90;;;;;;;;;;4874317;29;20068;-68
2023/07/30 17:19:33;;;;;;;11.35;3.05;;;;;;;;;;4873596;29;20743;-66
2023/07/30 17:21:59;;;;;;;11.55;2.83;;;;;;;;;;4874220;29;20128;-64
2023/07/30 17:24:26;;;;;;;12.60;2.88;;;;;;;;;;4870399;29;20041;-66
2023/07/30 17:26:52;;;;;;;11.00;2.88;;;;;;;;;;4860972;29;20085;-66
2023/07/30 17:29:19;;;;;;;13.57;3.10;;;;;;;;;;4868824;29;20696;-72
2023/07/30 17:31:45;;;;;;;10.93;2.78;;;;;;;;;;4873539;29;20053;-67
2023/07/30 17:34:13;;;;;;;12.50;3.17;;;;;;;;;;4870152;29;20076;-63
2023/07/30 17:36:40;;;;;;;8.95;3.30;;;;;;;;;;4876098;29;20040;-67
2023/07/30 17:39:07;;;;;;;14.23;2.85;;;;;;;;;;4871425;29;20052;-68
2023/07/30 17:41:33;;;;;;;10.15;3.10;;;;;;;;;;4879279;29;20424;-68
2023/07/30 17:43:59;;;;;;;8.15;2.60;;;;;;;;;;4873595;29;20060;-65
2023/07/30 17:46:25;;;;;;;10.55;2.65;;;;;;;;;;4867438;29;20050;-66
2023/07/30 17:48:51;;;;;;;12.38;3.08;;;;;;;;;;4872635;29;20597;-70
2023/07/30 17:51:18;;;;;;;13.63;3.53;;;;;;;;;;4861335;29;20060;-70
2023/07/30 17:53:45;;;;;;;15.20;3.28;;;;;;;;;;4872206;29;20140;-68
2023/07/30 17:56:12;;;;;;;15.15;2.83;;;;;;;;;;4876086;29;20414;-64
2023/07/30 17:58:38;;;;;;;13.88;3.00;;;;;;;;;;4852781;29;20455;-67
2023/07/30 18:01:05;;;;;;;10.80;2.83;;;;;;;;;;4860573;29;20057;-69
2023/07/30 18:03:35;;;;;;;10.90;2.88;;;;;;;;;;4882685;29;20064;-65
2023/07/30 18:06:03;;;;;;;12.27;3.40;;;;;;;;;;4871679;29;20055;-69
2023/07/30 18:08:29;;;;;;;13.15;3.45;;;;;;;;;;4864765;29;20123;-69
2023/07/30 18:10:55;;;;;;;8.55;3.00;;;;;;;;;;4885561;29;20552;-71
2023/07/30 18:13:22;;;;;;;13.63;3.03;;;;;;;;;;4885113;29;20061;-70
2023/07/30 18:15:48;;;;;;;13.63;3.28;;;;;;;;;;4884369;29;20108;-72
2023/07/30 18:18:14;;;;;;;12.35;3.38;;;;;;;;;;4882728;29;20068;-72
2023/07/30 18:20:40;;;;;;;19.98;3.95;;;;;;;;;;4884358;29;20068;-72
2023/07/30 18:23:07;;;;;;;16.02;3.15;;;;;;;;;;4884834;29;20071;-74
2023/07/30 18:25:34;;;;;;;11.75;3.13;;;;;;;;;;4887252;29;20053;-72
2023/07/30 18:28:00;;;;;;;14.63;3.60;;;;;;;;;;4884199;29;20045;-71
2023/07/30 18:30:26;;;;;;;12.95;3.15;;;;;;;;;;4886859;29;20037;-72
2023/07/30 18:32:52;;;;;;;12.77;3.30;;;;;;;;;;4887065;29;20084;-75
2023/07/30 18:35:18;;;;;;;14.80;3.13;;;;;;;;;;4881414;29;20052;-72
2023/07/30 18:37:44;;;;;;;17.60;3.58;;;;;;;;;;4888415;29;20509;-70
2023/07/30 18:40:11;;;;;;;14.68;3.45;;;;;;;;;;4880012;29;20037;-73
2023/07/30 18:42:38;;;;;;;13.38;3.10;;;;;;;;;;4881783;29;20142;-69
2023/07/30 18:45:06;;;;;;;13.07;3.63;;;;;;;;;;4882857;29;20060;-71
2023/07/30 18:47:33;;;;;;;12.85;3.38;;;;;;;;;;4879705;29;20056;-75
2023/07/30 18:49:59;;;;;;;15.35;3.20;;;;;;;;;;4879869;29;20596;-76
2023/07/30 18:52:25;;;;;;;15.95;3.42;;;;;;;;;;4882165;29;20041;-77
2023/07/30 18:54:51;;;;;;;16.02;3.22;;;;;;;;;;4880810;29;20063;-69
2023/07/30 18:57:17;;;;;;;11.40;3.33;;;;;;;;;;4882417;29;20100;-72
2023/07/30 19:00:24;;;;;;;13.65;3.50;;;;;;;;;;4884427;29;20109;-68
2023/07/30 19:04:04;;;;;;;14.57;3.30;;;;;;;;;;4890468;29;20108;-71
2023/07/30 19:07:45;;;;;;;16.83;3.88;;;;;;;;;;4890920;29;20061;-70
2023/07/30 19:11:26;;;;;;;19.15;3.28;;;;;;;;;;4887955;29;20040;-74
2023/07/30 19:15:06;;;;;;;19.48;3.92;;;;;;;;;;4891307;29;20059;-74